Fisher, MN (56723)

4:56 PM CDT on September 16, 2014 (GMT -0500)
Crookston Municipal-Kirkwood | Change Station
CLOSE
Current Station
Airport
Location: Crookston,
Elevation: 899 ft
Nearby Weather Stations

Elev 899 ft 47.84 °N, 96.62 °W | Updated 22 minutes ago

Clear
Clear
72 °F
Feels Like 72 °F
N
9
Wind Variable Wind from WSW

Today
High -- | Low -- °F
--% Chance of Precip.
Yesterday
High -- | Low -- °F
Precip. -- in
7:05 AM 7:37 PM
Last Quarter, 42% visible
Pressure 29.96 in
Visibility 10.0 miles
Clouds Clear
Dew Point 41 °F
Humidity 33%
Rainfall 0.00 in
Snow Depth Not available.
UV 3 out of 12
Pollen 3.70 out of 12
Air Quality Not available.
Flu Activity Not available.
METAR KCKN 162134Z AUTO 24008KT 10SM CLR 22/05 A2996 RMK AO2

More Conditions Fewer Conditions

Pressure 29.96 in
Visibility 10.0 miles
Clouds Clear
Dew Point 41 °F
Humidity 33%
Rainfall 0.00 in
Snow Depth Not available.
UV 3 out of 12
Pollen 3.70 out of 12
Air Quality Not available.
Flu Activity Not available.
METAR KCKN 162134Z AUTO 24008KT 10SM CLR 22/05 A2996 RMK AO2

More Conditions Fewer Conditions

10-Day Weather Forecast

Almanac

Astronomy

Sep. 16, 2014 Rise Set
Actual Time 7:05 AM CDT 7:37 PM CDT
Civil Twilight 6:34 AM CDT 8:08 PM CDT
Nautical Twilight 5:57 AM CDT 8:45 PM CDT
Astronomical Twilight 5:19 AM CDT 9:23 PM CDT
Moon No Moon Rise 3:20 PM CDT
Length of Visible Light 13h 33m
Length of Day
12h 31m
Tomorrow will be 3m 26s shorter.
Last Quarter, 42% of the Moon is Illuminated
Today
Last Quarter
Sep 24
New
Oct 1
First Quarter
Oct 8
Full
Oct 15
Last Quarter

Today's Extremes

State Highs State Lows

Community

WunderPhotos

Upload Photos

1,753,895 photos uploaded!

Nearby

Snow Depth

Station Depth Elevation
No new snow has been reported.

Earthquake Activity

City Distance Mag. Time & Date
No recent earthquake activity has been reported nearby.
Minimum magnitude displayed is 2.5.

Coastal Water Temperatures

Place Temperature
No Stations Reporting

Nearby Weather Stations